Time,TemperatureF,DewpointF,PressureIn,WindDirection,WindDirectionDegrees,WindSpeedMPH,WindSpeedGustMPH,Humidity,HourlyPrecipIn,Conditions,Clouds,dailyrainin,SoftwareType,DateUTC
2013-03-11 00:00:00,54.9,40.0,29.73,SSE,168,2.2,7.0,57,0.00,,OVC070,0.01,VWS V14.01,2013-03-11 04:00:00,
2013-03-11 00:05:00,54.8,39.9,29.73,South,181,4.2,7.0,57,0.00,,OVC065,0.00,VWS V14.01,2013-03-11 04:05:00,
2013-03-11 00:10:00,54.7,40.2,29.72,South,171,6.2,9.0,58,0.00,,OVC065,0.00,VWS V14.01,2013-03-11 04:10:00,
2013-03-11 00:15:00,54.5,40.0,29.72,South,173,3.2,7.0,58,0.00,,OVC065,0.00,VWS V14.01,2013-03-11 04:15:00,
2013-03-11 00:20:00,54.5,40.0,29.72,South,173,4.2,7.0,58,0.00,,OVC065,0.00,VWS V14.01,2013-03-11 04:20:00,
2013-03-11 00:25:00,54.4,40.0,29.72,South,182,4.2,11.0,58,0.00,,OVC065,0.00,VWS V14.01,2013-03-11 04:25:00,
2013-03-11 00:31:00,54.3,40.3,29.72,SSE,160,7.2,11.0,59,0.00,,OVC065,0.00,VWS V14.01,2013-03-11 04:31:00,
2013-03-11 00:36:00,54.2,40.2,29.72,South,169,5.2,7.0,59,0.00,,OVC065,0.00,VWS V14.01,2013-03-11 04:36:00,
2013-03-11 00:41:00,54.2,40.6,29.72,South,174,1.2,7.0,60,0.00,,OVC065,0.00,VWS V14.01,2013-03-11 04:41:00,
2013-03-11 00:46:00,54.1,40.5,29.72,South,173,2.2,4.0,60,0.00,,OVC065,0.00,VWS V14.01,2013-03-11 04:46:00,
2013-03-11 00:51:00,54.0,40.0,29.72,South,175,4.2,6.0,59,0.00,,OVC065,0.00,VWS V14.01,2013-03-11 04:51:00,
2013-03-11 00:56:00,53.9,40.3,29.72,SSE,164,4.2,7.0,60,0.00,,OVC065,0.00,VWS V14.01,2013-03-11 04:56:00,
2013-03-11 01:01:00,53.8,39.8,29.71,SSE,164,4.2,7.0,59,0.00,,OVC044,0.00,VWS V14.01,2013-03-11 05:01:00,
2013-03-11 01:06:00,53.8,39.8,29.71,SSE,164,2.2,4.0,59,0.00,,OVC044,0.00,VWS V14.01,2013-03-11 05:06:00,
2013-03-11 01:11:00,53.8,39.8,29.71,SSE,161,5.2,8.0,59,0.00,,OVC044,0.00,VWS V14.01,2013-03-11 05:11:00,
2013-03-11 01:16:00,53.9,39.9,29.70,SSE,161,1.2,5.0,59,0.00,,OVC044,0.00,VWS V14.01,2013-03-11 05:16:00,
2013-03-11 01:21:00,53.9,39.5,29.70,SSE,162,3.2,5.0,58,0.00,,OVC044,0.00,VWS V14.01,2013-03-11 05:21:00,
2013-03-11 01:26:00,53.8,39.8,29.70,SSE,162,5.2,5.2,59,0.00,,OVC044,0.00,VWS V14.01,2013-03-11 05:26:00,
2013-03-11 01:31:00,53.7,39.7,29.70,SSE,162,3.2,5.0,59,0.00,,OVC044,0.00,VWS V14.01,2013-03-11 05:31:00,
2013-03-11 01:36:00,53.7,39.7,29.70,SSE,161,1.2,3.0,59,0.00,,OVC044,0.00,VWS V14.01,2013-03-11 05:36:00,
2013-03-11 01:41:00,53.6,39.6,29.70,SSE,162,1.2,5.0,59,0.00,,OVC044,0.00,VWS V14.01,2013-03-11 05:41:00,
2013-03-11 01:46:00,53.6,39.6,29.70,SSE,163,6.2,6.2,59,0.00,,OVC044,0.00,VWS V14.01,2013-03-11 05:46:00,
2013-03-11 01:51:00,53.6,39.6,29.70,SSE,165,1.2,0.0,59,0.00,,OVC044,0.00,VWS V14.01,2013-03-11 05:51:00,
2013-03-11 01:56:00,53.6,39.6,29.70,SSE,168,5.2,6.0,59,0.00,,OVC044,0.00,VWS V14.01,2013-03-11 05:56:00,
2013-03-11 02:02:00,53.6,39.6,29.70,SSE,168,3.2,6.0,59,0.00,,OVC039,0.00,VWS V14.01,2013-03-11 06:02:00,
2013-03-11 02:07:00,53.7,39.7,29.70,South,173,5.2,8.0,59,0.00,,OVC039,0.00,VWS V14.01,2013-03-11 06:07:00,
2013-03-11 02:12:00,53.7,39.7,29.70,South,173,5.2,7.0,59,0.00,,OVC039,0.00,VWS V14.01,2013-03-11 06:12:00,
2013-03-11 02:17:00,53.8,40.3,29.70,South,186,6.2,8.0,60,0.00,,OVC039,0.00,VWS V14.01,2013-03-11 06:17:00,
2013-03-11 02:22:00,54.0,40.4,29.70,SSW,198,5.2,5.2,60,0.00,,OVC039,0.00,VWS V14.01,2013-03-11 06:22:00,
2013-03-11 02:27:00,54.1,41.4,29.70,South,187,6.2,10.0,62,0.00,,OVC039,0.00,VWS V14.01,2013-03-11 06:27:00,
2013-03-11 02:32:00,54.2,41.9,29.70,SSW,194,3.2,4.0,63,0.00,,OVC039,0.00,VWS V14.01,2013-03-11 06:32:00,
2013-03-11 02:37:00,54.3,42.0,29.70,SSW,206,6.2,9.0,63,0.00,,OVC039,0.00,VWS V14.01,2013-03-11 06:37:00,
2013-03-11 02:42:00,54.4,42.9,29.69,SSE,163,5.2,9.0,65,0.00,,OVC039,0.00,VWS V14.01,2013-03-11 06:42:00,
2013-03-11 02:47:00,54.6,43.9,29.69,SSW,211,6.2,11.0,67,0.00,,OVC039,0.00,VWS V14.01,2013-03-11 06:47:00,
2013-03-11 02:52:00,54.7,44.0,29.69,SSW,211,4.2,6.0,67,0.00,,OVC039,0.00,VWS V14.01,2013-03-11 06:52:00,
2013-03-11 02:57:00,54.9,44.2,29.69,SSE,164,10.2,14.0,67,0.00,,OVC039,0.00,VWS V14.01,2013-03-11 06:57:00,
2013-03-11 03:02:00,55.0,44.3,29.69,SW,221,6.2,7.0,67,0.00,,-RA,0.00,VWS V14.01,2013-03-11 07:02:00,
2013-03-11 03:07:00,55.0,44.3,29.69,SSW,199,9.2,11.0,67,0.00,,-RA,0.00,VWS V14.01,2013-03-11 07:07:00,
2013-03-11 03:12:00,54.8,44.5,29.69,SW,215,8.2,8.2,68,0.00,,-RA,0.00,VWS V14.01,2013-03-11 07:12:00,
2013-03-11 03:17:00,54.7,44.4,29.69,SSW,198,4.2,13.0,68,0.00,,-RA,0.00,VWS V14.01,2013-03-11 07:17:00,
2013-03-11 03:22:00,54.7,44.4,29.69,SW,231,4.2,6.0,68,0.00,,-RA,0.00,VWS V14.01,2013-03-11 07:22:00,
2013-03-11 03:27:00,54.6,44.3,29.69,SW,232,11.2,18.0,68,0.00,,-RA,0.00,VWS V14.01,2013-03-11 07:27:00,
2013-03-11 03:32:00,54.5,44.2,29.69,SSW,204,6.2,6.2,68,0.00,,-RA,0.00,VWS V14.01,2013-03-11 07:32:00,
2013-03-11 03:37:00,54.4,44.1,29.69,SW,214,3.2,15.0,68,0.00,,-RA,0.00,VWS V14.01,2013-03-11 07:37:00,
2013-03-11 03:42:00,54.4,44.1,29.68,South,190,7.2,11.0,68,0.00,,-RA,0.00,VWS V14.01,2013-03-11 07:42:00,
2013-03-11 03:47:00,54.2,44.6,29.68,South,179,7.2,15.0,70,0.00,,-RA,0.00,VWS V14.01,2013-03-11 07:47:00,
2013-03-11 03:52:00,53.9,44.3,29.68,SSW,199,7.2,13.0,70,0.00,,-RA,0.00,VWS V14.01,2013-03-11 07:52:00,
2013-03-11 03:57:00,53.7,44.5,29.69,SW,218,9.2,13.0,71,0.00,,-RA,0.00,VWS V14.01,2013-03-11 07:57:00,
2013-03-11 04:02:00,53.4,45.0,29.68,South,186,6.2,8.0,73,0.00,,-RA,0.00,VWS V14.01,2013-03-11 08:02:00,
2013-03-11 04:07:00,53.1,45.0,29.68,SW,214,9.2,9.2,74,0.00,,-RA,0.00,VWS V14.01,2013-03-11 08:07:00,
2013-03-11 04:12:00,52.7,45.0,29.67,SW,225,6.2,6.2,75,0.00,,-RA,0.00,VWS V14.01,2013-03-11 08:12:00,
2013-03-11 04:17:00,52.4,45.1,29.67,SW,226,5.2,11.0,76,0.00,,-RA,0.00,VWS V14.01,2013-03-11 08:17:00,
2013-03-11 04:22:00,52.1,44.8,29.67,SW,227,4.2,5.0,76,0.00,,-RA,0.00,VWS V14.01,2013-03-11 08:22:00,
2013-03-11 04:27:00,52.0,45.0,29.66,SW,225,3.2,6.0,77,0.00,,-RA,0.00,VWS V14.01,2013-03-11 08:27:00,
2013-03-11 04:32:00,51.8,44.8,29.67,SW,217,6.2,8.0,77,0.00,,-RA,0.00,VWS V14.01,2013-03-11 08:32:00,
2013-03-11 04:38:00,51.8,44.8,29.67,South,190,2.2,16.0,77,0.00,,-RA,0.00,VWS V14.01,2013-03-11 08:38:00,
2013-03-11 04:43:00,51.7,45.1,29.67,SW,218,4.2,11.0,78,0.00,,-RA,0.00,VWS V14.01,2013-03-11 08:43:00,
2013-03-11 04:48:00,51.6,45.3,29.67,SW,225,7.2,12.0,79,0.00,,-RA,0.00,VWS V14.01,2013-03-11 08:48:00,
2013-03-11 04:53:00,51.3,45.3,29.67,SW,222,7.2,7.2,80,0.01,,-RA,0.01,VWS V14.01,2013-03-11 08:53:00,
2013-03-11 04:58:00,51.1,45.5,29.66,SW,215,8.2,10.0,81,0.01,,-RA,0.01,VWS V14.01,2013-03-11 08:58:00,
2013-03-11 05:03:00,50.8,45.5,29.66,SSW,212,7.2,7.2,82,0.01,,OVC014,0.01,VWS V14.01,2013-03-11 09:03:00,
2013-03-11 05:08:00,50.6,45.3,29.66,SSW,207,4.2,7.0,82,0.02,,OVC014,0.02,VWS V14.01,2013-03-11 09:08:00,
2013-03-11 05:13:00,50.4,45.4,29.66,SSW,207,5.2,5.2,83,0.02,,OVC014,0.02,VWS V14.01,2013-03-11 09:13:00,
2013-03-11 05:18:00,50.2,45.2,29.66,SSW,207,4.2,7.0,83,0.02,,OVC014,0.02,VWS V14.01,2013-03-11 09:18:00,
2013-03-11 05:23:00,50.1,45.5,29.66,SSW,207,2.2,2.2,84,0.03,,OVC014,0.03,VWS V14.01,2013-03-11 09:23:00,
2013-03-11 05:28:00,50.0,45.4,29.65,SSW,208,2.2,5.0,84,0.03,,OVC014,0.03,VWS V14.01,2013-03-11 09:28:00,
2013-03-11 05:33:00,49.8,45.2,29.65,SSW,208,3.2,3.2,84,0.03,,OVC014,0.03,VWS V14.01,2013-03-11 09:33:00,
2013-03-11 05:38:00,49.8,45.2,29.66,SSW,207,3.2,5.0,84,0.03,,OVC014,0.03,VWS V14.01,2013-03-11 09:38:00,
2013-03-11 05:43:00,49.6,45.0,29.66,SSW,202,2.2,6.0,84,0.04,,OVC014,0.04,VWS V14.01,2013-03-11 09:43:00,
2013-03-11 05:48:00,49.6,45.3,29.65,SSW,202,3.2,7.0,85,0.04,,OVC014,0.04,VWS V14.01,2013-03-11 09:48:00,
2013-03-11 05:53:00,49.5,45.2,29.65,SSW,202,2.2,5.0,85,0.04,,OVC014,0.04,VWS V14.01,2013-03-11 09:53:00,
2013-03-11 05:58:00,49.4,45.1,29.66,South,189,3.2,7.0,85,0.04,,OVC014,0.04,VWS V14.01,2013-03-11 09:58:00,
2013-03-11 06:03:00,49.4,45.1,29.66,South,190,8.2,8.2,85,0.03,,-RA,0.04,VWS V14.01,2013-03-11 10:03:00,
2013-03-11 06:08:00,49.3,45.0,29.66,South,190,4.2,7.0,85,0.03,,-RA,0.04,VWS V14.01,2013-03-11 10:08:00,
2013-03-11 06:13:00,49.3,45.0,29.64,South,186,4.2,5.0,85,0.03,,-RA,0.05,VWS V14.01,2013-03-11 10:13:00,
2013-03-11 06:18:00,49.3,45.3,29.64,South,186,5.2,5.2,86,0.03,,-RA,0.05,VWS V14.01,2013-03-11 10:18:00,
2013-03-11 06:23:00,49.2,45.2,29.64,South,186,3.2,3.2,86,0.02,,-RA,0.05,VWS V14.01,2013-03-11 10:23:00,
2013-03-11 06:28:00,49.2,45.2,29.64,South,186,5.2,5.2,86,0.02,,-RA,0.05,VWS V14.01,2013-03-11 10:28:00,
2013-03-11 06:33:00,49.1,45.1,29.64,South,186,4.2,4.2,86,0.02,,-RA,0.05,VWS V14.01,2013-03-11 10:33:00,
2013-03-11 06:38:00,49.1,45.1,29.65,South,186,1.2,5.0,86,0.02,,-RA,0.05,VWS V14.01,2013-03-11 10:38:00,
2013-03-11 06:43:00,49.1,45.1,29.64,South,189,7.2,7.2,86,0.02,,-RA,0.06,VWS V14.01,2013-03-11 10:43:00,
2013-03-11 06:48:00,49.1,45.1,29.65,South,189,4.2,7.0,86,0.02,,-RA,0.06,VWS V14.01,2013-03-11 10:48:00,
2013-03-11 06:53:00,49.1,45.1,29.64,South,189,4.2,4.2,86,0.02,,-RA,0.06,VWS V14.01,2013-03-11 10:53:00,
2013-03-11 06:58:00,49.1,45.1,29.65,South,190,6.2,8.0,86,0.02,,-RA,0.06,VWS V14.01,2013-03-11 10:58:00,
2013-03-11 07:03:00,49.0,45.0,29.67,South,190,7.2,7.2,86,0.02,,OVC034,0.06,VWS V14.01,2013-03-11 11:03:00,
2013-03-11 07:08:00,49.0,45.0,29.67,SSW,194,5.2,9.0,86,0.03,,OVC034,0.07,VWS V14.01,2013-03-11 11:08:00,
2013-03-11 07:13:00,49.0,45.0,29.67,SSW,195,3.2,3.2,86,0.02,,OVC034,0.07,VWS V14.01,2013-03-11 11:13:00,
2013-03-11 07:19:00,49.0,45.3,29.67,SSW,195,6.2,7.0,87,0.02,,OVC034,0.07,VWS V14.01,2013-03-11 11:19:00,
2013-03-11 07:24:00,49.1,45.4,29.67,SSW,197,5.2,7.0,87,0.02,,OVC034,0.07,VWS V14.01,2013-03-11 11:24:00,
2013-03-11 07:29:00,49.1,45.4,29.67,SSW,196,3.2,7.0,87,0.02,,OVC034,0.07,VWS V14.01,2013-03-11 11:29:00,
2013-03-11 07:34:00,49.1,45.4,29.66,SSW,197,4.2,4.2,87,0.02,,OVC034,0.07,VWS V14.01,2013-03-11 11:34:00,
2013-03-11 07:39:00,49.1,45.4,29.66,SSW,197,1.2,6.0,87,0.02,,OVC034,0.07,VWS V14.01,2013-03-11 11:39:00,
2013-03-11 07:44:00,49.1,45.4,29.66,SSW,197,3.2,4.0,87,0.01,,OVC034,0.07,VWS V14.01,2013-03-11 11:44:00,
2013-03-11 07:49:00,49.1,45.4,29.66,SSW,196,4.2,6.0,87,0.01,,OVC034,0.07,VWS V14.01,2013-03-11 11:49:00,
2013-03-11 07:54:00,49.1,45.4,29.65,SSW,196,2.2,4.0,87,0.01,,OVC034,0.07,VWS V14.01,2013-03-11 11:54:00,
2013-03-11 07:59:00,49.1,45.4,29.64,SSW,197,4.2,4.2,87,0.01,,OVC034,0.07,VWS V14.01,2013-03-11 11:59:00,
2013-03-11 08:04:00,49.2,45.5,29.65,SSW,197,1.2,4.0,87,0.01,,OVC036,0.07,VWS V14.01,2013-03-11 12:04:00,
2013-03-11 08:09:00,49.1,45.4,29.65,SSW,196,2.2,4.0,87,0.01,,OVC036,0.07,VWS V14.01,2013-03-11 12:09:00,
2013-03-11 08:14:00,49.1,45.4,29.65,SSW,196,4.2,4.2,87,0.00,,OVC036,0.07,VWS V14.01,2013-03-11 12:14:00,
2013-03-11 08:19:00,49.1,45.4,29.64,SSW,197,1.2,3.0,87,0.00,,OVC036,0.07,VWS V14.01,2013-03-11 12:19:00,
2013-03-11 08:24:00,49.1,45.4,29.64,SSW,197,1.2,2.0,87,0.00,,OVC036,0.07,VWS V14.01,2013-03-11 12:24:00,
2013-03-11 08:29:00,49.0,45.3,29.65,SSW,197,5.2,5.2,87,0.00,,OVC036,0.07,VWS V14.01,2013-03-11 12:29:00,
2013-03-11 08:34:00,49.1,45.4,29.65,SSW,196,3.2,3.2,87,0.00,,OVC036,0.07,VWS V14.01,2013-03-11 12:34:00,
2013-03-11 08:39:00,49.1,45.4,29.65,SSW,197,4.2,4.2,87,0.00,,OVC036,0.07,VWS V14.01,2013-03-11 12:39:00,
2013-03-11 08:44:00,49.1,45.4,29.65,SSW,197,1.2,3.0,87,0.00,,OVC036,0.07,VWS V14.01,2013-03-11 12:44:00,
2013-03-11 08:49:00,49.0,45.3,29.66,SSW,197,1.2,4.0,87,0.00,,OVC036,0.07,VWS V14.01,2013-03-11 12:49:00,
2013-03-11 08:54:00,49.0,45.3,29.65,SSW,196,1.2,3.0,87,0.00,,OVC036,0.07,VWS V14.01,2013-03-11 12:54:00,
2013-03-11 08:59:00,49.0,45.3,29.64,SSW,197,1.2,3.0,87,0.00,,OVC036,0.07,VWS V14.01,2013-03-11 12:59:00,
2013-03-11 09:04:00,48.9,45.2,29.64,SSW,196,1.2,0.0,87,0.00,,OVC030,0.07,VWS V14.01,2013-03-11 13:04:00,
2013-03-11 09:09:00,49.0,45.3,29.65,SSW,197,1.2,0.0,87,0.00,,OVC030,0.07,VWS V14.01,2013-03-11 13:09:00,
2013-03-11 09:14:00,49.0,45.3,29.65,SSW,196,1.2,0.0,87,0.00,,OVC030,0.07,VWS V14.01,2013-03-11 13:14:00,
2013-03-11 09:19:00,49.0,45.3,29.66,SSW,197,5.2,6.0,87,0.00,,OVC030,0.07,VWS V14.01,2013-03-11 13:19:00,
2013-03-11 09:24:00,49.0,45.3,29.65,SSW,196,1.2,4.0,87,0.00,,OVC030,0.07,VWS V14.01,2013-03-11 13:24:00,
2013-03-11 09:29:00,49.1,45.4,29.65,SSW,196,4.2,5.0,87,0.00,,OVC030,0.07,VWS V14.01,2013-03-11 13:29:00,
2013-03-11 09:34:00,49.2,45.8,29.65,SSW,197,1.2,4.0,88,0.00,,OVC030,0.07,VWS V14.01,2013-03-11 13:34:00,
2013-03-11 09:39:00,49.2,45.8,29.65,SSW,196,3.2,5.0,88,0.00,,OVC030,0.07,VWS V14.01,2013-03-11 13:39:00,
2013-03-11 09:44:00,49.2,45.8,29.66,SSW,196,1.2,1.2,88,0.00,,OVC030,0.07,VWS V14.01,2013-03-11 13:44:00,
2013-03-11 09:49:00,49.3,45.9,29.65,SSW,197,1.2,2.0,88,0.00,,OVC030,0.07,VWS V14.01,2013-03-11 13:49:00,
2013-03-11 09:54:00,49.3,45.9,29.65,SSW,196,1.2,0.0,88,0.00,,OVC030,0.07,VWS V14.01,2013-03-11 13:54:00,
2013-03-11 09:59:00,49.3,45.9,29.64,SSW,197,3.2,5.0,88,0.00,,OVC030,0.07,VWS V14.01,2013-03-11 13:59:00,
2013-03-11 10:04:00,49.3,45.9,29.62,SSW,197,3.2,3.2,88,0.00,,-RA,0.07,VWS V14.01,2013-03-11 14:04:00,
2013-03-11 10:09:00,49.4,46.0,29.63,SSW,196,2.2,4.0,88,0.00,,-RA,0.07,VWS V14.01,2013-03-11 14:09:00,
2013-03-11 10:14:00,49.4,46.0,29.63,SSW,196,3.2,3.2,88,0.00,,-RA,0.07,VWS V14.01,2013-03-11 14:14:00,
2013-03-11 10:19:00,49.4,46.0,29.62,SSW,197,1.2,3.0,88,0.00,,-RA,0.07,VWS V14.01,2013-03-11 14:19:00,
2013-03-11 10:24:00,49.4,46.0,29.63,SSW,196,3.2,3.2,88,0.00,,-RA,0.07,VWS V14.01,2013-03-11 14:24:00,
2013-03-11 10:29:00,49.4,46.0,29.62,SSW,196,3.2,5.0,88,0.00,,-RA,0.07,VWS V14.01,2013-03-11 14:29:00,
2013-03-11 10:34:00,49.4,46.0,29.61,SSW,196,4.2,4.2,88,0.00,,-RA,0.07,VWS V14.01,2013-03-11 14:34:00,
2013-03-11 10:39:00,49.5,46.1,29.60,SSW,196,2.2,4.0,88,0.01,,-RA,0.08,VWS V14.01,2013-03-11 14:39:00,
2013-03-11 10:44:00,49.5,46.1,29.60,SSW,197,1.2,4.0,88,0.01,,-RA,0.08,VWS V14.01,2013-03-11 14:44:00,
2013-03-11 10:49:00,49.6,46.2,29.60,SSW,197,1.2,4.0,88,0.01,,-RA,0.08,VWS V14.01,2013-03-11 14:49:00,
2013-03-11 10:54:00,49.6,46.2,29.60,SSW,196,2.2,3.0,88,0.01,,-RA,0.08,VWS V14.01,2013-03-11 14:54:00,
2013-03-11 10:59:00,49.6,46.2,29.60,SSW,197,1.2,4.0,88,0.01,,-RA,0.08,VWS V14.01,2013-03-11 14:59:00,
2013-03-11 11:04:00,49.6,46.2,29.60,SSW,196,7.2,7.2,88,0.01,,OVC036,0.08,VWS V14.01,2013-03-11 15:04:00,
2013-03-11 11:09:00,49.6,46.2,29.59,SSW,197,2.2,6.0,88,0.01,,OVC036,0.08,VWS V14.01,2013-03-11 15:09:00,
2013-03-11 11:14:00,49.7,46.3,29.59,SSW,197,3.2,5.0,88,0.01,,OVC036,0.08,VWS V14.01,2013-03-11 15:14:00,
2013-03-11 11:19:00,49.8,46.4,29.59,SSW,197,5.2,8.0,88,0.01,,OVC036,0.08,VWS V14.01,2013-03-11 15:19:00,
2013-03-11 11:25:00,49.8,46.4,29.59,SSW,198,7.2,7.2,88,0.01,,OVC036,0.08,VWS V14.01,2013-03-11 15:25:00,
2013-03-11 11:30:00,49.8,46.4,29.59,SSW,202,8.2,11.0,88,0.01,,OVC036,0.08,VWS V14.01,2013-03-11 15:30:00,
2013-03-11 11:35:00,49.8,46.4,29.59,SSW,202,9.2,9.2,88,0.01,,OVC036,0.08,VWS V14.01,2013-03-11 15:35:00,
2013-03-11 11:40:00,49.7,46.3,29.59,SW,234,4.2,11.0,88,0.01,,OVC036,0.08,VWS V14.01,2013-03-11 15:40:00,
2013-03-11 11:45:00,49.7,46.3,29.58,SW,234,7.2,7.2,88,0.00,,OVC036,0.08,VWS V14.01,2013-03-11 15:45:00,
2013-03-11 11:50:00,49.7,46.3,29.58,SW,227,8.2,8.2,88,0.00,,OVC036,0.08,VWS V14.01,2013-03-11 15:50:00,
2013-03-11 11:55:00,49.7,46.3,29.58,SW,229,4.2,10.0,88,0.00,,OVC036,0.08,VWS V14.01,2013-03-11 15:55:00,
2013-03-11 12:00:00,49.8,46.4,29.58,SW,228,2.2,10.0,88,0.00,,OVC007,0.08,VWS V14.01,2013-03-11 16:00:00,
2013-03-11 12:05:00,49.8,46.4,29.58,SW,227,4.2,9.0,88,0.01,,OVC007,0.09,VWS V14.01,2013-03-11 16:05:00,
2013-03-11 12:10:00,49.8,46.1,29.57,SW,228,5.2,9.0,87,0.01,,OVC007,0.09,VWS V14.01,2013-03-11 16:10:00,
2013-03-11 12:15:00,49.8,46.1,29.58,SW,225,5.2,9.0,87,0.01,,OVC007,0.09,VWS V14.01,2013-03-11 16:15:00,
2013-03-11 12:20:00,49.8,46.1,29.58,SW,223,6.2,9.0,87,0.02,,OVC007,0.10,VWS V14.01,2013-03-11 16:20:00,
2013-03-11 12:25:00,49.7,46.0,29.58,West,277,15.2,16.0,87,0.04,,OVC007,0.12,VWS V14.01,2013-03-11 16:25:00,
2013-03-11 12:30:00,49.1,45.1,29.57,West,268,9.2,16.0,86,0.05,,OVC007,0.13,VWS V14.01,2013-03-11 16:30:00,
2013-03-11 12:35:00,48.7,45.0,29.57,West,277,9.2,11.0,87,0.05,,OVC007,0.13,VWS V14.01,2013-03-11 16:35:00,
2013-03-11 12:40:00,48.4,44.4,29.57,West,279,9.2,11.0,86,0.06,,OVC007,0.14,VWS V14.01,2013-03-11 16:40:00,
2013-03-11 12:45:00,48.0,44.0,29.57,West,271,11.2,13.0,86,0.06,,OVC007,0.14,VWS V14.01,2013-03-11 16:45:00,
2013-03-11 12:50:00,47.9,43.9,29.57,West,271,6.2,13.0,86,0.06,,OVC007,0.14,VWS V14.01,2013-03-11 16:50:00,
2013-03-11 12:55:00,47.8,43.8,29.57,WNW,284,12.2,14.0,86,0.06,,OVC007,0.14,VWS V14.01,2013-03-11 16:55:00,
2013-03-11 13:00:00,47.4,43.4,29.58,West,277,10.2,14.0,86,0.06,,OVC011,0.14,VWS V14.01,2013-03-11 17:00:00,
2013-03-11 13:05:00,47.1,43.1,29.59,West,279,10.2,11.0,86,0.05,,OVC011,0.14,VWS V14.01,2013-03-11 17:05:00,
2013-03-11 13:10:00,47.0,43.0,29.57,West,275,4.2,12.0,86,0.05,,OVC011,0.14,VWS V14.01,2013-03-11 17:10:00,
2013-03-11 13:15:00,46.6,42.6,29.58,West,275,11.2,12.0,86,0.05,,OVC011,0.14,VWS V14.01,2013-03-11 17:15:00,
2013-03-11 13:20:00,46.3,42.3,29.58,West,272,8.2,12.0,86,0.05,,OVC011,0.14,VWS V14.01,2013-03-11 17:20:00,
2013-03-11 13:25:00,46.1,42.2,29.58,West,275,5.2,11.0,86,0.04,,OVC011,0.15,VWS V14.01,2013-03-11 17:25:00,
2013-03-11 13:30:00,46.1,42.2,29.58,West,265,8.2,12.0,86,0.04,,OVC011,0.15,VWS V14.01,2013-03-11 17:30:00,
2013-03-11 13:35:00,46.1,42.2,29.58,West,269,8.2,12.0,86,0.03,,OVC011,0.16,VWS V14.01,2013-03-11 17:35:00,
2013-03-11 13:40:00,45.9,42.0,29.58,West,269,9.2,12.0,86,0.03,,OVC011,0.16,VWS V14.01,2013-03-11 17:40:00,
2013-03-11 13:45:00,45.6,41.7,29.58,West,268,8.2,12.0,86,0.03,,OVC011,0.17,VWS V14.01,2013-03-11 17:45:00,
2013-03-11 13:50:00,45.3,41.4,29.58,WNW,288,8.2,16.0,86,0.04,,OVC011,0.18,VWS V14.01,2013-03-11 17:50:00,
2013-03-11 13:55:00,44.9,41.0,29.58,West,279,10.2,14.0,86,0.04,,OVC011,0.18,VWS V14.01,2013-03-11 17:55:00,
2013-03-11 14:00:00,44.6,40.7,29.58,West,277,12.2,17.0,86,0.05,,-RA,0.19,VWS V14.01,2013-03-11 18:00:00,
2013-03-11 14:05:00,44.3,40.4,29.59,West,274,14.2,14.2,86,0.05,,-RA,0.19,VWS V14.01,2013-03-11 18:05:00,
2013-03-11 14:10:00,43.9,39.7,29.59,West,269,11.2,15.0,85,0.06,,-RA,0.20,VWS V14.01,2013-03-11 18:10:00,
2013-03-11 14:15:00,43.5,39.3,29.60,West,277,13.2,13.2,85,0.07,,-RA,0.21,VWS V14.01,2013-03-11 18:15:00,
2013-03-11 14:20:00,43.2,39.0,29.60,West,275,8.2,13.0,85,0.07,,-RA,0.21,VWS V14.01,2013-03-11 18:20:00,
2013-03-11 14:25:00,43.0,38.8,29.60,WSW,257,12.2,14.0,85,0.07,,-RA,0.21,VWS V14.01,2013-03-11 18:25:00,
2013-03-11 14:30:00,42.9,39.0,29.59,West,265,7.2,14.0,86,0.08,,-RA,0.22,VWS V14.01,2013-03-11 18:30:00,
2013-03-11 14:35:00,43.0,39.1,29.59,West,259,15.2,16.0,86,0.07,,-RA,0.22,VWS V14.01,2013-03-11 18:35:00,
2013-03-11 14:40:00,42.9,39.0,29.59,West,263,12.2,16.0,86,0.07,,-RA,0.22,VWS V14.01,2013-03-11 18:40:00,
2013-03-11 14:46:00,42.8,38.9,29.59,West,261,8.2,16.0,86,0.06,,-RA,0.22,VWS V14.01,2013-03-11 18:46:00,
2013-03-11 14:50:00,42.7,38.8,29.58,WSW,250,14.2,18.0,86,0.06,,-RA,0.22,VWS V14.01,2013-03-11 18:50:00,
2013-03-11 14:56:00,43.0,39.1,29.59,WSW,246,14.2,20.0,86,0.04,,-RA,0.22,VWS V14.01,2013-03-11 18:56:00,
2013-03-11 15:01:00,43.2,39.0,29.58,WSW,252,17.2,21.0,85,0.04,,OVC021,0.22,VWS V14.01,2013-03-11 19:01:00,
2013-03-11 15:06:00,43.4,38.3,29.58,WSW,256,18.2,25.0,82,0.03,,OVC021,0.22,VWS V14.01,2013-03-11 19:06:00,
2013-03-11 15:11:00,43.7,38.0,29.58,WSW,257,17.2,26.0,80,0.03,,OVC021,0.22,VWS V14.01,2013-03-11 19:11:00,
2013-03-11 15:16:00,43.8,38.0,29.58,WSW,253,16.2,25.0,80,0.02,,OVC021,0.22,VWS V14.01,2013-03-11 19:16:00,
2013-03-11 15:21:00,43.8,37.4,29.59,WSW,240,17.2,26.0,78,0.02,,OVC021,0.22,VWS V14.01,2013-03-11 19:21:00,
2013-03-11 15:26:00,43.6,36.5,29.59,WSW,238,17.2,25.0,76,0.01,,OVC021,0.22,VWS V14.01,2013-03-11 19:26:00,
2013-03-11 15:31:00,43.7,37.0,29.59,WSW,256,25.2,27.0,77,0.01,,OVC021,0.22,VWS V14.01,2013-03-11 19:31:00,
2013-03-11 15:36:00,43.7,36.6,29.60,WSW,253,25.2,27.0,76,0.00,,OVC021,0.22,VWS V14.01,2013-03-11 19:36:00,
2013-03-11 15:41:00,43.7,37.0,29.60,WSW,245,23.2,27.0,77,0.00,,OVC021,0.22,VWS V14.01,2013-03-11 19:41:00,
2013-03-11 15:46:00,43.5,36.5,29.59,WSW,246,18.2,27.0,76,0.00,,OVC021,0.22,VWS V14.01,2013-03-11 19:46:00,
2013-03-11 15:51:00,43.2,36.2,29.59,WSW,242,10.2,21.0,76,0.00,,OVC021,0.22,VWS V14.01,2013-03-11 19:51:00,
2013-03-11 15:56:00,43.3,36.6,29.59,WSW,240,15.2,22.0,77,0.00,,OVC021,0.22,VWS V14.01,2013-03-11 19:56:00,
2013-03-11 16:02:00,43.6,37.2,29.59,WSW,251,14.2,15.0,78,0.00,,OVC021,0.22,VWS V14.01,2013-03-11 20:02:00,
2013-03-11 16:07:00,43.7,37.0,29.60,WSW,244,20.2,26.0,77,0.00,,OVC021,0.22,VWS V14.01,2013-03-11 20:07:00,
2013-03-11 16:12:00,43.5,36.5,29.60,WSW,246,15.2,15.2,76,0.00,,OVC021,0.22,VWS V14.01,2013-03-11 20:12:00,
2013-03-11 16:17:00,43.3,35.6,29.60,WSW,239,17.2,25.0,74,0.00,,OVC021,0.22,VWS V14.01,2013-03-11 20:17:00,
2013-03-11 16:22:00,43.2,35.5,29.60,WSW,242,23.2,25.0,74,0.00,,OVC021,0.22,VWS V14.01,2013-03-11 20:22:00,
2013-03-11 16:27:00,42.9,34.8,29.61,SW,236,20.2,31.0,73,0.00,,OVC021,0.22,VWS V14.01,2013-03-11 20:27:00,
2013-03-11 16:32:00,42.4,34.4,29.61,WSW,248,21.2,29.0,73,0.00,,OVC021,0.22,VWS V14.01,2013-03-11 20:32:00,
2013-03-11 16:37:00,41.9,34.2,29.62,WSW,250,25.2,29.0,74,0.00,,OVC021,0.22,VWS V14.01,2013-03-11 20:37:00,
2013-03-11 16:42:00,41.7,34.0,29.62,West,261,16.2,20.0,74,0.00,,OVC021,0.22,VWS V14.01,2013-03-11 20:42:00,
2013-03-11 16:47:00,41.4,34.1,29.63,WSW,245,20.2,24.0,75,0.00,,OVC021,0.22,VWS V14.01,2013-03-11 20:47:00,
2013-03-11 16:52:00,41.1,34.1,29.63,WSW,250,17.2,25.0,76,0.00,,OVC021,0.22,VWS V14.01,2013-03-11 20:52:00,
2013-03-11 16:57:00,40.7,33.7,29.64,WSW,241,15.2,25.0,76,0.00,,OVC021,0.22,VWS V14.01,2013-03-11 20:57:00,
2013-03-11 17:02:00,40.4,33.5,29.64,WSW,256,25.2,26.0,76,0.00,,OVC010,0.22,VWS V14.01,2013-03-11 21:02:00,
2013-03-11 17:08:00,40.0,33.4,29.64,WSW,257,20.2,26.0,77,0.00,,OVC010,0.22,VWS V14.01,2013-03-11 21:08:00,
2013-03-11 17:13:00,39.4,33.1,29.65,WSW,248,21.2,22.0,78,0.00,,OVC010,0.22,VWS V14.01,2013-03-11 21:13:00,
2013-03-11 17:18:00,39.0,33.0,29.65,West,263,25.2,25.2,79,0.00,,OVC010,0.22,VWS V14.01,2013-03-11 21:18:00,
2013-03-11 17:23:00,38.5,32.9,29.65,WSW,257,15.2,21.0,80,0.00,,OVC010,0.22,VWS V14.01,2013-03-11 21:23:00,
2013-03-11 17:28:00,38.1,32.5,29.65,West,261,16.2,23.0,80,0.00,,OVC010,0.22,VWS V14.01,2013-03-11 21:28:00,
2013-03-11 17:33:00,37.8,32.2,29.66,WSW,257,16.2,19.0,80,0.00,,OVC010,0.22,VWS V14.01,2013-03-11 21:33:00,
2013-03-11 17:38:00,37.7,32.1,29.66,West,261,15.2,26.0,80,0.00,,OVC010,0.22,VWS V14.01,2013-03-11 21:38:00,
2013-03-11 17:43:00,37.6,32.0,29.67,WSW,252,17.2,17.2,80,0.00,,OVC010,0.22,VWS V14.01,2013-03-11 21:43:00,
2013-03-11 17:48:00,37.6,32.0,29.67,WSW,255,15.2,20.0,80,0.00,,OVC010,0.22,VWS V14.01,2013-03-11 21:48:00,
2013-03-11 17:53:00,37.7,32.1,29.67,WSW,250,11.2,19.0,80,0.00,,OVC010,0.22,VWS V14.01,2013-03-11 21:53:00,
2013-03-11 17:58:00,37.8,31.9,29.67,WSW,249,16.2,25.0,79,0.00,,OVC010,0.22,VWS V14.01,2013-03-11 21:58:00,
2013-03-11 18:03:00,37.8,31.9,29.67,WSW,257,14.2,17.0,79,0.00,,OVC012,0.22,VWS V14.01,2013-03-11 22:03:00,
2013-03-11 18:08:00,37.8,31.9,29.68,WSW,247,14.2,17.0,79,0.00,,OVC012,0.22,VWS V14.01,2013-03-11 22:08:00,
2013-03-11 18:13:00,37.7,31.8,29.68,WSW,244,21.2,21.2,79,0.00,,OVC012,0.22,VWS V14.01,2013-03-11 22:13:00,
2013-03-11 18:18:00,37.6,31.7,29.68,SW,219,15.2,21.0,79,0.00,,OVC012,0.22,VWS V14.01,2013-03-11 22:18:00,
2013-03-11 18:23:00,37.5,31.6,29.68,WSW,255,15.2,20.0,79,0.00,,OVC012,0.22,VWS V14.01,2013-03-11 22:23:00,
2013-03-11 18:28:00,37.4,31.8,29.68,WSW,253,16.2,20.0,80,0.00,,OVC012,0.22,VWS V14.01,2013-03-11 22:28:00,
2013-03-11 18:33:00,37.2,31.6,29.69,West,266,11.2,17.0,80,0.00,,OVC012,0.22,VWS V14.01,2013-03-11 22:33:00,
2013-03-11 18:39:00,37.0,31.4,29.69,WSW,254,18.2,23.0,80,0.00,,OVC012,0.22,VWS V14.01,2013-03-11 22:39:00,
2013-03-11 18:44:00,36.7,31.4,29.69,WSW,242,20.2,22.0,81,0.00,,OVC012,0.22,VWS V14.01,2013-03-11 22:44:00,
2013-03-11 18:49:00,36.5,31.2,29.69,WSW,253,14.2,22.0,81,0.00,,OVC012,0.22,VWS V14.01,2013-03-11 22:49:00,
2013-03-11 18:54:00,36.5,31.5,29.69,WSW,251,16.2,16.2,82,0.00,,OVC012,0.22,VWS V14.01,2013-03-11 22:54:00,
2013-03-11 18:59:00,36.3,31.3,29.70,WSW,252,15.2,22.0,82,0.00,,OVC012,0.22,VWS V14.01,2013-03-11 22:59:00,
2013-03-11 19:04:00,36.2,30.9,29.69,WSW,251,21.2,21.2,81,0.00,,OVC025,0.22,VWS V14.01,2013-03-11 23:04:00,
2013-03-11 19:09:00,36.1,30.8,29.70,WSW,237,20.2,24.0,81,0.00,,OVC025,0.22,VWS V14.01,2013-03-11 23:09:00,
2013-03-11 19:14:00,36.0,30.8,29.70,WSW,250,17.2,20.0,81,0.00,,OVC025,0.22,VWS V14.01,2013-03-11 23:14:00,
2013-03-11 19:19:00,36.0,31.0,29.70,WSW,255,12.2,20.0,82,0.00,,OVC025,0.22,VWS V14.01,2013-03-11 23:19:00,
2013-03-11 19:24:00,35.9,31.0,29.70,WSW,254,14.2,19.0,82,0.00,,OVC025,0.22,VWS V14.01,2013-03-11 23:24:00,
2013-03-11 19:29:00,35.8,30.9,29.70,WSW,255,17.2,19.0,82,0.00,,OVC025,0.22,VWS V14.01,2013-03-11 23:29:00,
2013-03-11 19:34:00,35.8,30.9,29.70,WSW,250,13.2,21.0,82,0.00,,OVC025,0.22,VWS V14.01,2013-03-11 23:34:00,
2013-03-11 19:39:00,35.8,30.5,29.71,WSW,248,12.2,25.0,81,0.00,,OVC025,0.22,VWS V14.01,2013-03-11 23:39:00,
2013-03-11 19:44:00,35.8,30.5,29.71,WSW,255,14.2,21.0,81,0.00,,OVC025,0.22,VWS V14.01,2013-03-11 23:44:00,
2013-03-11 19:49:00,35.8,30.5,29.71,West,261,17.2,23.0,81,0.00,,OVC025,0.22,VWS V14.01,2013-03-11 23:49:00,
2013-03-11 19:54:00,35.7,30.1,29.71,WSW,254,15.2,20.0,80,0.00,,OVC025,0.22,VWS V14.01,2013-03-11 23:54:00,
2013-03-11 19:59:00,35.7,30.1,29.72,West,261,21.2,21.2,80,0.00,,OVC025,0.22,VWS V14.01,2013-03-11 23:59:00,
2013-03-11 20:04:00,35.6,30.0,29.72,WSW,255,15.2,23.0,80,0.00,,OVC014,0.22,VWS V14.01,2013-03-12 00:04:00,
2013-03-11 20:09:00,35.5,30.0,29.73,WSW,254,17.2,25.0,80,0.00,,OVC014,0.22,VWS V14.01,2013-03-12 00:09:00,
2013-03-11 20:14:00,35.5,30.0,29.73,WSW,254,21.2,23.0,80,0.00,,OVC014,0.22,VWS V14.01,2013-03-12 00:14:00,
2013-03-11 20:19:00,35.4,29.5,29.73,WSW,257,15.2,23.0,79,0.00,,OVC014,0.22,VWS V14.01,2013-03-12 00:19:00,
2013-03-11 20:24:00,35.4,29.5,29.73,WSW,248,14.2,24.0,79,0.00,,OVC014,0.22,VWS V14.01,2013-03-12 00:24:00,
2013-03-11 20:29:00,35.4,29.5,29.74,WSW,246,19.2,24.0,79,0.00,,OVC014,0.22,VWS V14.01,2013-03-12 00:29:00,
2013-03-11 20:34:00,35.4,29.5,29.74,WSW,253,17.2,24.0,79,0.00,,OVC014,0.22,VWS V14.01,2013-03-12 00:34:00,
2013-03-11 20:39:00,35.4,29.5,29.74,WSW,249,15.2,24.0,79,0.00,,OVC014,0.22,VWS V14.01,2013-03-12 00:39:00,
2013-03-11 20:44:00,35.4,29.9,29.74,WSW,249,13.2,22.0,80,0.00,,OVC014,0.22,VWS V14.01,2013-03-12 00:44:00,
2013-03-11 20:49:00,35.4,29.9,29.74,WSW,248,20.2,24.0,80,0.00,,OVC014,0.22,VWS V14.01,2013-03-12 00:49:00,
2013-03-11 20:54:00,35.3,29.8,29.74,WSW,252,21.2,23.0,80,0.00,,OVC014,0.22,VWS V14.01,2013-03-12 00:54:00,
2013-03-11 20:59:00,35.2,30.0,29.75,WSW,250,25.2,25.2,81,0.00,,OVC014,0.22,VWS V14.01,2013-03-12 00:59:00,
2013-03-11 21:04:00,35.0,29.8,29.75,WSW,249,17.2,21.0,81,0.00,,OVC012,0.22,VWS V14.01,2013-03-12 01:04:00,
2013-03-11 21:09:00,35.0,29.8,29.75,WSW,253,12.2,23.0,81,0.00,,OVC012,0.22,VWS V14.01,2013-03-12 01:09:00,
2013-03-11 21:14:00,35.1,29.9,29.76,WSW,249,13.2,19.0,81,0.00,,OVC012,0.22,VWS V14.01,2013-03-12 01:14:00,
2013-03-11 21:19:00,35.1,29.9,29.76,WSW,244,12.2,19.0,81,0.00,,OVC012,0.22,VWS V14.01,2013-03-12 01:19:00,
2013-03-11 21:24:00,35.2,30.0,29.76,SW,235,9.2,13.0,81,0.00,,OVC012,0.22,VWS V14.01,2013-03-12 01:24:00,
2013-03-11 21:29:00,35.1,29.9,29.76,WSW,246,16.2,18.0,81,0.00,,OVC012,0.22,VWS V14.01,2013-03-12 01:29:00,
2013-03-11 21:34:00,35.0,29.8,29.76,WSW,248,14.2,18.0,81,0.00,,OVC012,0.22,VWS V14.01,2013-03-12 01:34:00,
2013-03-11 21:39:00,35.0,29.8,29.77,WSW,248,17.2,22.0,81,0.00,,OVC012,0.22,VWS V14.01,2013-03-12 01:39:00,
2013-03-11 21:44:00,35.0,29.8,29.77,WSW,254,16.2,20.0,81,0.00,,OVC012,0.22,VWS V14.01,2013-03-12 01:44:00,
2013-03-11 21:49:00,35.0,29.8,29.77,SW,236,9.2,22.0,81,0.00,,OVC012,0.22,VWS V14.01,2013-03-12 01:49:00,
2013-03-11 21:54:00,35.0,29.8,29.77,WSW,237,7.2,19.0,81,0.00,,OVC012,0.22,VWS V14.01,2013-03-12 01:54:00,
2013-03-11 21:59:00,35.0,29.8,29.78,WSW,238,12.2,19.0,81,0.00,,OVC012,0.22,VWS V14.01,2013-03-12 01:59:00,
2013-03-11 22:04:00,35.0,29.8,29.78,WSW,252,15.2,19.0,81,0.00,,OVC010,0.22,VWS V14.01,2013-03-12 02:04:00,
2013-03-11 22:09:00,35.0,29.8,29.78,WSW,244,13.2,21.0,81,0.00,,OVC010,0.22,VWS V14.01,2013-03-12 02:09:00,
2013-03-11 22:14:00,35.0,29.8,29.78,West,260,20.2,21.0,81,0.00,,OVC010,0.22,VWS V14.01,2013-03-12 02:14:00,
2013-03-11 22:19:00,35.0,29.8,29.79,WSW,252,18.2,25.0,81,0.00,,OVC010,0.22,VWS V14.01,2013-03-12 02:19:00,
2013-03-11 22:24:00,35.0,29.8,29.79,WSW,250,15.2,20.0,81,0.00,,OVC010,0.22,VWS V14.01,2013-03-12 02:24:00,
2013-03-11 22:29:00,35.0,30.1,29.79,WSW,250,12.2,21.0,82,0.00,,OVC010,0.22,VWS V14.01,2013-03-12 02:29:00,
2013-03-11 22:34:00,35.0,29.8,29.79,WSW,247,12.2,17.0,81,0.00,,OVC010,0.22,VWS V14.01,2013-03-12 02:34:00,
2013-03-11 22:39:00,35.0,30.1,29.80,WSW,256,16.2,21.0,82,0.00,,OVC010,0.22,VWS V14.01,2013-03-12 02:39:00,
2013-03-11 22:44:00,34.9,30.0,29.80,WSW,246,11.2,17.0,82,0.00,,OVC010,0.22,VWS V14.01,2013-03-12 02:44:00,
2013-03-11 22:49:00,34.7,30.1,29.80,WSW,246,12.2,18.0,83,0.00,,OVC010,0.22,VWS V14.01,2013-03-12 02:49:00,
2013-03-11 22:54:00,34.4,29.8,29.80,WSW,245,17.2,17.2,83,0.00,,OVC010,0.22,VWS V14.01,2013-03-12 02:54:00,
2013-03-11 22:59:00,34.3,29.7,29.80,WSW,238,12.2,18.0,83,0.00,,OVC010,0.22,VWS V14.01,2013-03-12 02:59:00,
2013-03-11 23:04:00,34.1,29.8,29.80,WSW,247,14.2,17.0,84,0.00,,OVC008,0.22,VWS V14.01,2013-03-12 03:04:00,
2013-03-11 23:10:00,34.1,29.8,29.80,WSW,249,11.2,18.0,84,0.00,,OVC008,0.22,VWS V14.01,2013-03-12 03:10:00,
2013-03-11 23:15:00,34.1,29.8,29.80,WSW,255,12.2,16.0,84,0.00,,OVC008,0.22,VWS V14.01,2013-03-12 03:15:00,
2013-03-11 23:20:00,33.8,29.5,29.81,WSW,250,12.2,16.0,84,0.00,,OVC008,0.22,VWS V14.01,2013-03-12 03:20:00,
2013-03-11 23:25:00,33.5,29.2,29.81,WSW,250,10.2,13.0,84,0.00,,OVC008,0.22,VWS V14.01,2013-03-12 03:25:00,
2013-03-11 23:30:00,33.2,29.2,29.81,WSW,254,13.2,14.0,85,0.00,,OVC008,0.22,VWS V14.01,2013-03-12 03:30:00,
2013-03-11 23:35:00,33.2,29.2,29.81,WSW,249,12.2,15.0,85,0.00,,OVC008,0.22,VWS V14.01,2013-03-12 03:35:00,
2013-03-11 23:40:00,33.2,29.2,29.81,WSW,244,15.2,17.0,85,0.00,,OVC008,0.22,VWS V14.01,2013-03-12 03:40:00,
2013-03-11 23:45:00,33.2,29.5,29.81,WSW,250,14.2,19.0,86,0.00,,OVC008,0.22,VWS V14.01,2013-03-12 03:45:00,
2013-03-11 23:50:00,33.2,29.5,29.81,WSW,256,13.2,19.0,86,0.00,,OVC008,0.22,VWS V14.01,2013-03-12 03:50:00,
2013-03-11 23:55:00,33.3,29.6,29.81,WSW,248,13.2,18.0,86,0.00,,OVC008,0.22,VWS V14.01,2013-03-12 03:55:00,